Data for 07/04/2006

Time Sea-Level Adjusted Pressure Absolute Pressure Temperature Relative Humidity Dew Point   
(mb) (inHg) (mb) (inHg) (C) (F) (%) (C) (F)
00:05 1025 30.27 854 25.22 16.6 61.8 77 12.5 54.5
00:10 1025 30.27 854 25.22 16.6 61.8 77 12.6 54.6
00:15 1025 30.27 854 25.22 16.5 61.7 78 12.7 54.8
00:20 1025 30.27 854 25.22 16.5 61.6 78 12.7 54.8
00:25 1025 30.27 854 25.22 16.5 61.7 78 12.7 54.8
00:30 1025 30.27 854 25.22 16.5 61.6 78 12.6 54.7
00:35 1025 30.27 854 25.22 16.5 61.7 77 12.5 54.5
00:40 1025 30.27 855 25.25 16.5 61.7 77 12.5 54.6
00:45 1025 30.27 855 25.25 16.4 61.5 78 12.6 54.6
00:50 1025 30.27 854 25.22 16.4 61.4 78 12.5 54.6
00:55 1025 30.27 854 25.22 16.4 61.4 78 12.6 54.7
01:00 1025 30.27 854 25.22 16.2 61.2 79 12.6 54.7
01:05 1025 30.27 854 25.22 16.1 61 80 12.7 54.8
01:10 1025 30.27 854 25.22 16.1 60.9 80 12.7 54.8
01:15 1025 30.27 854 25.22 16 60.8 80 12.6 54.7
01:20 1025 30.27 854 25.22 15.9 60.6 81 12.6 54.7
01:25 1025 30.27 854 25.22 15.9 60.5 81 12.7 54.9
01:30 1025 30.27 854 25.22 15.8 60.4 82 12.7 54.9
01:35 1025 30.27 854 25.22 15.7 60.2 83 12.7 54.9
01:40 1025 30.27 854 25.22 15.6 60 83 12.7 54.9
01:45 1025 30.27 854 25.22 15.6 60 83 12.7 54.9
01:50 1025 30.27 854 25.22 15.6 60 83 12.7 54.9
01:55 1025 30.27 854 25.22 15.5 59.9 83 12.7 54.8
02:00 1025 30.27 854 25.22 15.6 60 83 12.7 54.9
02:05 1025 30.27 854 25.22 15.6 60.2 82 12.7 54.8
02:10 1025 30.27 854 25.22 15.7 60.2 82 12.6 54.7
02:15 1025 30.27 854 25.22 15.6 60 82 12.5 54.6
02:20 1025 30.27 854 25.22 15.6 60.1 82 12.5 54.6
02:25 1025 30.27 854 25.22 15.6 60.1 82 12.6 54.6
02:30 1025 30.27 854 25.22 15.6 60 83 12.6 54.8
02:35 1025 30.27 854 25.22 15.5 59.8 83 12.6 54.7
02:40 1025 30.27 854 25.22 15.4 59.6 83 12.6 54.7
02:45 1025 30.27 854 25.22 15.3 59.6 84 12.6 54.7
02:50 1025 30.27 854 25.22 15.2 59.3 84 12.6 54.7
02:55 1025 30.27 854 25.22 15.1 59.1 85 12.5 54.6
03:00 1025 30.27 854 25.22 15.1 59.1 84 12.5 54.5
03:05 1025 30.27 854 25.22 15.2 59.3 84 12.5 54.5
03:10 1025 30.27 854 25.22 15.1 59.1 84 12.5 54.4
03:15 1025 30.27 854 25.22 15.1 59.2 84 12.5 54.5
03:20 1025 30.27 854 25.22 15.1 59.2 84 12.4 54.3
03:25 1025 30.27 854 25.22 15 59.1 84 12.4 54.2
03:30 1025 30.27 854 25.22 15 59 84 12.3 54.2
03:35 1025 30.27 854 25.22 15 59 83 12.2 53.9
03:40 1025 30.27 854 25.22 15.1 59.3 83 12.3 54.1
03:45 1025 30.27 854 25.22 15 59 83 12.2 53.9
03:50 1025 30.27 854 25.22 14.8 58.7 83 12.1 53.7
03:55 1025 30.27 854 25.22 14.7 58.4 84 11.9 53.5
04:00 1025 30.27 854 25.22 14.5 58.2 84 11.9 53.3
04:05 1025 30.27 854 25.22 14.5 58.1 84 11.8 53.2
04:10 1025 30.27 854 25.22 14.7 58.5 83 11.9 53.4
04:15 1025 30.27 854 25.22 14.9 58.8 82 11.9 53.5
04:20 1025 30.27 854 25.22 14.9 58.8 82 11.9 53.4
04:25 1025 30.27 854 25.22 14.8 58.7 82 11.9 53.4
04:30 1025 30.27 854 25.22 14.9 58.8 82 11.8 53.3
04:35 1025 30.27 854 25.22 14.9 58.8 82 11.8 53.2
04:40 1025 30.27 854 25.22 14.9 58.7 81 11.7 53.1
04:45 1025 30.27 854 25.22 14.9 58.7 81 11.7 53
04:50 1025 30.27 854 25.22 14.8 58.7 80 11.5 52.8
04:55 1025 30.27 854 25.22 14.7 58.5 81 11.5 52.8
05:00 1025 30.27 854 25.22 14.6 58.4 81 11.5 52.7
05:05 1025 30.27 854 25.22 14.5 58 82 11.4 52.6
05:10 1025 30.27 854 25.22 14.3 57.7 83 11.4 52.5
05:15 1025 30.27 854 25.22 14.2 57.5 83 11.4 52.5
05:20 1025 30.27 854 25.22 14 57.3 84 11.3 52.4
05:25 1025 30.27 854 25.22 14 57.2 84 11.3 52.4
05:30 1025 30.27 854 25.22 14.1 57.3 83 11.3 52.4
05:35 1025 30.27 854 25.22 14 57.3 83 11.3 52.3
05:40 1025 30.27 854 25.22 14.1 57.3 83 11.2 52.2
05:45 1025 30.27 854 25.22 14.1 57.3 83 11.2 52.2
05:50 1025 30.27 854 25.22 14.1 57.3 83 11.2 52.2
05:55 1025 30.27 855 25.25 14 57.2 83 11.2 52.2
06:00 1025 30.27 855 25.25 13.9 57.1 83 11.1 52.1
06:05 1026 30.3 855 25.25 13.9 57.1 83 11.2 52.1
06:10 1026 30.3 855 25.25 13.9 57 83 11.1 52
06:15 1026 30.3 855 25.25 14 57.2 83 11.1 52
06:20 1026 30.3 855 25.25 14.2 57.5 82 11.2 52.1
06:25 1026 30.3 855 25.25 14.3 57.7 81 11.2 52.1
06:30 1026 30.3 855 25.25 14.3 57.7 81 11.1 52.1
06:35 1026 30.3 855 25.25 14.5 58 81 11.2 52.2
06:40 1026 30.3 855 25.25 14.7 58.5 80 11.4 52.5
06:45 1026 30.3 855 25.25 14.9 58.7 80 11.4 52.6
06:50 1026 30.3 855 25.25 14.9 58.8 80 11.4 52.6
06:55 1026 30.3 855 25.25 15.2 59.3 78 11.5 52.6
07:00 1026 30.3 855 25.25 15.2 59.4 79 11.7 53
07:05 1026 30.3 855 25.25 15.3 59.6 79 11.7 53
07:10 1026 30.3 855 25.25 15.4 59.6 79 11.8 53.3
07:15 1026 30.3 855 25.25 15.6 60 79 11.9 53.4
07:20 1026 30.3 855 25.25 15.5 59.9 78 11.8 53.2
07:25 1026 30.3 855 25.25 15.6 60 78 11.8 53.3
07:30 1026 30.3 855 25.25 15.8 60.5 77 11.9 53.5
07:35 1026 30.3 855 25.25 15.9 60.6 77 11.8 53.3
07:40 1026 30.3 855 25.25 16 60.7 75 11.7 53
07:45 1026 30.3 855 25.25 16.2 61.2 75 11.8 53.3
07:50 1026 30.3 855 25.25 16.4 61.5 73 11.7 53.1
07:55 1026 30.3 855 25.25 16.4 61.5 74 11.7 53.1
08:00 1026 30.3 855 25.25 16.4 61.5 73 11.6 52.9
08:05 1026 30.3 855 25.25 16.8 62.2 72 11.7 53.1
08:10 1026 30.3 855 25.25 16.7 62 72 11.6 52.9
08:15 1026 30.3 855 25.25 16.7 62.1 72 11.7 53.1
08:20 1026 30.3 855 25.25 17.3 63.2 69 11.6 52.9
08:25 1026 30.3 855 25.25 17.4 63.4 69 11.8 53.2
08:30 1026 30.3 855 25.25 17.4 63.4 68 11.6 52.9
08:35 1026 30.3 855 25.25 17.5 63.4 69 11.8 53.3
08:40 1026 30.3 855 25.25 17.7 63.8 66 11.4 52.5
08:45 1026 30.3 855 25.25 18 64.4 67 11.9 53.5
08:50 1026 30.3 855 25.25 18.2 64.7 69 12.4 54.4
08:55 1026 30.3 855 25.25 17.9 64.2 69 12.1 53.8
09:00 1026 30.3 855 25.25 18.3 65 66 12 53.6
09:05 1026 30.3 855 25.25 18.7 65.6 66 12.3 54.1
09:10 1026 30.3 855 25.25 18.7 65.6 66 12.3 54.1
09:15 1026 30.3 855 25.25 18.3 64.9 67 12.1 53.8
09:20 1026 30.3 855 25.25 18.3 65 66 12 53.6
09:25 1026 30.3 855 25.25 18.7 65.7 63 11.7 53.1
09:30 1026 30.3 855 25.25 19.5 67.1 61 11.8 53.2
09:35 1026 30.3 855 25.25 19.8 67.7 62 12.4 54.2
09:40 1026 30.3 855 25.25 19.6 67.2 61 11.9 53.5
09:45 1026 30.3 855 25.25 20 67.9 61 12.3 54.1
09:50 1026 30.3 855 25.25 19.7 67.4 61 12 53.5
09:55 1026 30.3 855 25.25 20.7 69.2 57 11.9 53.4
10:00 1026 30.3 855 25.25 21.2 70.1 56 12.1 53.8
10:05 1026 30.3 855 25.25 21.1 70 56 12 53.6
10:10 1026 30.3 855 25.25 21.3 70.3 55 11.9 53.4
10:15 1026 30.3 855 25.25 21.9 71.4 55 12.7 54.8
10:20 1026 30.3 855 25.25 21.2 70.1 58 12.6 54.7
10:25 1026 30.3 855 25.25 21.1 70 56 12.1 53.8
10:30 1026 30.3 855 25.25 21.1 70 57 12.5 54.5
10:35 1025 30.27 855 25.25 21.5 70.7 56 12.4 54.4
10:40 1025 30.27 855 25.25 21.9 71.3 56 12.8 55
10:45 1025 30.27 855 25.25 22.1 71.7 55 12.8 55.1
10:50 1025 30.27 855 25.25 22.3 72.1 53 12.4 54.4
10:55 1025 30.27 855 25.25 22.9 73.2 52 12.7 54.9
11:00 1025 30.27 854 25.22 22.9 73.3 50 12.2 53.9
11:05 1025 30.27 854 25.22 22.7 72.9 52 12.7 54.8
11:10 1025 30.27 854 25.22 23.4 74 50 12.4 54.3
11:15 1025 30.27 854 25.22 23.6 74.5 50 12.7 54.8
11:20 1025 30.27 854 25.22 23.7 74.7 49 12.7 54.8
11:25 1025 30.27 854 25.22 23.7 74.6 49 12.6 54.7
11:30 1025 30.27 854 25.22 23.7 74.7 49 12.6 54.6
11:35 1025 30.27 854 25.22 24.4 76 45 11.9 53.5
11:40 1025 30.27 854 25.22 24.7 76.4 47 12.7 54.8
11:45 1025 30.27 854 25.22 24.7 76.4 45 12.2 53.9
11:50 1025 30.27 854 25.22 25.6 78 43 12.2 53.9
11:55 1025 30.27 854 25.22 25.7 78.2 43 12.6 54.6
12:00 1025 30.27 854 25.22 25.9 78.5 44 12.7 54.9
12:05 1025 30.27 854 25.22 24.7 76.4 48 13 55.4
12:10 1025 30.27 854 25.22 24.5 76 43 11.3 52.4
12:15 1025 30.27 854 25.22 25.6 78.1 40 11.3 52.3
12:20 1025 30.27 854 25.22 26.2 79.2 42 12.6 54.7
12:25 1025 30.27 854 25.22 25.7 78.3 44 12.8 55.1
12:30 1025 30.27 854 25.22 25.5 77.9 44 12.5 54.5
12:35 1025 30.27 854 25.22 26.4 79.6 40 12.1 53.8
12:40 1025 30.27 854 25.22 26.8 80.2 41 12.6 54.7
12:45 1025 30.27 854 25.22 26.1 78.9 41 11.9 53.5
12:50 1025 30.27 854 25.22 26.4 79.6 37 10.8 51.5
12:55 1025 30.27 854 25.22 26.4 79.5 38 11.2 52.1
13:00 1025 30.27 854 25.22 25.8 78.4 41 11.9 53.4
13:05 1025 30.27 854 25.22 25.7 78.2 40 11.3 52.3
13:10 1025 30.27 854 25.22 26.2 79.2 38 11.1 51.9
13:15 1025 30.27 854 25.22 27 80.7 39 12.3 54.2
13:20 1025 30.27 854 25.22 26.1 79 36 10 50.1
13:25 1025 30.27 854 25.22 26.8 80.3 35 10.5 50.9
13:30 1025 30.27 854 25.22 27 80.6 36 10.8 51.4
13:35 1025 30.27 854 25.22 27.4 81.2 34 10.3 50.5
13:40 1025 30.27 854 25.22 27.9 82.3 33 10.3 50.5
13:45 1024 30.24 854 25.22 27.6 81.6 34 10.4 50.7
13:50 1024 30.24 854 25.22 28.3 82.9 31 10 49.9
13:55 1024 30.24 854 25.22 29.3 84.7 30 10 50.1
14:00 1024 30.24 854 25.22 29.5 85.1 29 10 50
14:05 1024 30.24 853 25.19 28.8 83.9 31 10.5 50.8
14:10 1024 30.24 853 25.19 28.5 83.2 31 9.9 49.8
14:15 1024 30.24 853 25.19 28.8 83.9 28 8.9 47.9
14:20 1024 30.24 853 25.19 28.7 83.7 28 8.8 47.8
14:25 1024 30.24 853 25.19 29.5 85.2 26 8.4 47.1
14:30 1024 30.24 853 25.19 29.4 84.9 25 7.8 46.1
14:35 1024 30.24 853 25.19 28.2 82.7 24 6.1 43
14:40 1024 30.24 853 25.19 28.9 84.1 24 6.7 44.1
14:45 1024 30.24 853 25.19 29.1 84.4 24 6.9 44.4
14:50 1024 30.24 853 25.19 28.8 83.8 24 6.4 43.6
14:55 1024 30.24 853 25.19 29 84.2 23 6.3 43.3
15:00 1024 30.24 853 25.19 28.6 83.5 24 6.1 43
15:05 1024 30.24 853 25.19 28.5 83.4 23 5.6 42.1
15:10 1024 30.24 853 25.19 29.4 84.9 22 6 42.8
15:15 1024 30.24 853 25.19 29.6 85.2 22 5.7 42.3
15:20 1024 30.24 853 25.19 29.9 85.9 21 5.3 41.5
15:25 1024 30.24 853 25.19 29.6 85.3 22 6.1 43
15:30 1023 30.21 853 25.19 29.8 85.6 18 3.4 38
15:35 1023 30.21 853 25.19 28.7 83.7 22 5.4 41.8
15:40 1023 30.21 853 25.19 28.6 83.4 24 6.1 43
15:45 1023 30.21 853 25.19 29 84.1 22 5.5 42
15:50 1023 30.21 853 25.19 29.7 85.5 19 4 39.2
15:55 1023 30.21 852 25.16 29.9 85.9 21 5.3 41.6
16:00 1023 30.21 852 25.16 28.7 83.7 20 3.8 38.8
16:05 1023 30.21 852 25.16 28.7 83.6 19 3 37.4
16:10 1023 30.21 852 25.16 29.6 85.3 17 2.1 35.8
16:15 1023 30.21 852 25.16 29.8 85.6 16 1.8 35.2
16:20 1023 30.21 852 25.16 29.1 84.4 29 9.4 49
16:25 1023 30.21 852 25.16 28.6 83.4 29 9.1 48.4
16:30 1023 30.21 852 25.16 28.3 83 29 8.8 47.9
16:35 1023 30.21 852 25.16 28.7 83.6 29 9.2 48.5
16:40 1023 30.21 852 25.16 28.6 83.5 29 9 48.2
16:45 1023 30.21 852 25.16 28.1 82.6 26 7.3 45.1
16:50 1023 30.21 852 25.16 28.2 82.8 25 6.7 44
16:55 1023 30.21 852 25.16 28.4 83.2 30 9.5 49.1
17:00 1023 30.21 852 25.16 28 82.4 30 8.9 48.1
17:05 1023 30.21 852 25.16 28.2 82.7 28 8.2 46.7
17:10 1023 30.21 852 25.16 27.9 82.2 27 7.4 45.3
17:15 1023 30.21 852 25.16 28.1 82.6 24 5.9 42.6
17:20 1023 30.21 852 25.16 28 82.4 30 9 48.1
17:25 1023 30.21 852 25.16 27.6 81.7 30 8.5 47.3
17:30 1023 30.21 852 25.16 27.6 81.7 29 8.4 47.1
17:35 1023 30.21 852 25.16 27.5 81.4 31 9 48.3
17:40 1023 30.21 852 25.16 27.1 80.8 32 9.3 48.8
17:45 1023 30.21 852 25.16 27.1 80.8 32 9.2 48.6
17:50 1023 30.21 852 25.16 26.8 80.2 33 9.5 49.2
17:55 1023 30.21 852 25.16 26.6 79.8 33 9.4 48.9
18:00 1023 30.21 852 25.16 26.5 79.7 33 9.4 48.9
18:05 1023 30.21 852 25.16 26.6 79.8 33 9.3 48.7
18:10 1023 30.21 852 25.16 26.4 79.5 33 9 48.2
18:15 1022 30.18 852 25.16 26.3 79.4 34 9.3 48.8
18:20 1022 30.18 852 25.16 26.2 79.1 33 8.9 48.1
18:25 1022 30.18 852 25.16 26.2 79.2 32 8.4 47
18:30 1022 30.18 851 25.13 26 78.8 32 8.3 46.9
18:35 1022 30.18 851 25.13 25.9 78.5 32 8.2 46.8
18:40 1022 30.18 851 25.13 25.9 78.5 32 8.3 46.9
18:45 1022 30.18 851 25.13 25.7 78.2 33 8.3 47
18:50 1022 30.18 851 25.13 25.6 78.1 33 8.4 47.1
18:55 1022 30.18 851 25.13 25.5 77.9 33 8.1 46.6
19:00 1022 30.18 851 25.13 25.5 77.8 32 8 46.4
19:05 1022 30.18 851 25.13 25.5 77.8 33 8.4 47.2
19:10 1022 30.18 851 25.13 25.3 77.6 34 8.4 47.1
19:15 1022 30.18 851 25.13 25.2 77.4 33 8.2 46.8
19:20 1022 30.18 851 25.13 25.1 77.2 33 8.2 46.7
19:25 1022 30.18 851 25.13 25 77 34 8.3 46.9
19:30 1022 30.18 851 25.13 24.9 76.8 34 8.3 46.9
19:35 1022 30.18 851 25.13 24.8 76.6 35 8.5 47.3
19:40 1022 30.18 851 25.13 24.7 76.4 35 8.5 47.3
19:45 1022 30.18 851 25.13 24.5 76.1 36 8.7 47.6
19:50 1022 30.18 851 25.13 24.5 76.1 36 8.7 47.7
19:55 1022 30.18 851 25.13 24.4 75.8 36 8.7 47.7
20:00 1022 30.18 851 25.13 24.3 75.7 36 8.4 47.2
20:05 1022 30.18 851 25.13 24.2 75.5 36 8.5 47.3
20:10 1022 30.18 851 25.13 24 75.3 37 8.5 47.3
20:15 1022 30.18 851 25.13 23.9 75.1 37 8.5 47.3
20:20 1022 30.18 852 25.16 23.9 75 37 8.4 47.1
20:25 1022 30.18 852 25.16 23.8 74.8 37 8.6 47.4
20:30 1022 30.18 852 25.16 23.7 74.6 38 8.7 47.7
20:35 1022 30.18 852 25.16 23.5 74.2 38 8.6 47.4
20:40 1022 30.18 852 25.16 23.5 74.3 38 8.7 47.7
20:45 1022 30.18 852 25.16 23.3 74 39 8.8 47.8
20:50 1023 30.21 852 25.16 23.2 73.8 39 8.8 47.9
20:55 1023 30.21 852 25.16 23.1 73.5 40 9 48.2
21:00 1023 30.21 852 25.16 22.8 73 41 9 48.1
21:05 1023 30.21 852 25.16 22.8 73 41 8.9 48
21:10 1023 30.21 852 25.16 22.8 73 41 9 48.2
21:15 1023 30.21 852 25.16 22.6 72.6 42 9.2 48.5
21:20 1023 30.21 852 25.16 22.5 72.5 42 9.1 48.4
21:25 1023 30.21 852 25.16 22.5 72.5 41 8.8 47.9
21:30 1023 30.21 852 25.16 22.6 72.7 41 8.8 47.8
21:35 1023 30.21 852 25.16 22.7 72.8 40 8.7 47.7
21:40 1023 30.21 852 25.16 22.6 72.7 40 8.7 47.6
21:45 1023 30.21 852 25.16 22.6 72.6 41 8.7 47.7
21:50 1023 30.21 852 25.16 22.6 72.6 40 8.6 47.5
21:55 1023 30.21 852 25.16 22.5 72.5 41 8.7 47.7
22:00 1023 30.21 852 25.16 22.4 72.4 41 8.8 47.8
22:05 1023 30.21 852 25.16 22.4 72.2 41 8.7 47.7
22:10 1023 30.21 852 25.16 22.3 72.1 42 8.8 47.9
22:15 1023 30.21 852 25.16 22.2 72 42 8.8 47.9
22:20 1023 30.21 852 25.16 22.3 72.1 42 8.9 48
22:25 1023 30.21 852 25.16 22.1 71.9 43 9 48.2
22:30 1023 30.21 852 25.16 22 71.6 43 8.9 48.1
22:35 1023 30.21 852 25.16 22 71.5 43 9 48.2
22:40 1023 30.21 852 25.16 21.8 71.3 43 8.8 47.8
22:45 1023 30.21 852 25.16 21.9 71.4 43 8.9 48
22:50 1023 30.21 852 25.16 21.8 71.3 43 8.9 48
22:55 1023 30.21 852 25.16 21.7 71.1 43 8.8 47.9
23:00 1023 30.21 852 25.16 21.7 71 43 8.8 47.9
23:05 1023 30.21 852 25.16 21.6 70.9 43 8.8 47.9
23:10 1023 30.21 852 25.16 21.6 70.8 44 8.9 48
23:15 1023 30.21 852 25.16 21.4 70.5 44 8.8 47.9
23:20 1023 30.21 852 25.16 21.3 70.4 44 8.9 48
23:25 1023 30.21 852 25.16 21.2 70.2 44 8.8 47.8
23:30 1023 30.21 852 25.16 21.2 70.2 44 8.8 47.8
23:35 1023 30.21 852 25.16 21.3 70.3 44 8.8 47.8
23:40 1023 30.21 852 25.16 21.2 70.1 44 8.6 47.5
23:45 1023 30.21 852 25.16 21.1 70 45 8.7 47.7
23:50 1023 30.21 852 25.16 21.1 69.9 45 8.7 47.6
23:55 1023 30.21 852 25.16 21 69.9 44 8.6 47.4
24:00 1023 30.21 852 25.16 21 69.7 45 8.6 47.5